TimeAST,TemperatureF,Dew PointF,Humidity,Sea Level PressureIn,VisibilityMPH,Wind Direction,Wind SpeedMPH,Gust SpeedMPH,PrecipitationIn,Events,Conditions,WindDirDegrees,DateUTC
12:00 AM,87.8,48.2,25,29.83,-9999.0,NW,11.5,-,N/A,,Clear,320,2013-05-17 21:00:00
1:00 AM,86.0,50.0,29,29.80,-9999.0,NW,9.2,-,N/A,,Clear,320,2013-05-17 22:00:00
2:00 AM,84.2,55.4,37,29.83,-9999.0,NW,11.5,-,N/A,,Clear,320,2013-05-17 23:00:00
3:00 AM,85,53,23,29.82,7,NW,11.5,,,,,320,2013-05-18 00:00:00
3:00 AM,86.0,53.6,33,29.80,-9999.0,NW,11.5,-,N/A,,Clear,320,2013-05-18 00:00:00
3:30 AM,84.2,55.4,37,29.80,-9999.0,NNW,12.7,25.3,N/A,,Clear,330,2013-05-18 00:30:00
4:00 AM,84.2,55.4,37,29.83,-9999.0,NNW,12.7,-,N/A,,Clear,330,2013-05-18 01:00:00
4:30 AM,84.2,53.6,35,29.83,-9999.0,NNW,16.1,-,N/A,,Clear,330,2013-05-18 01:30:00
5:00 AM,84.2,53.6,35,29.83,-9999.0,NNW,15.0,-,N/A,,Clear,330,2013-05-18 02:00:00
5:30 AM,84.2,53.6,35,29.83,-9999.0,NW,16.1,29.9,N/A,,Clear,320,2013-05-18 02:30:00
6:00 AM,84.2,57.2,40,29.83,-9999.0,NNW,19.6,-,N/A,,Clear,330,2013-05-18 03:00:00
6:30 AM,86.0,57.2,37,29.83,-9999.0,NNW,19.6,-,N/A,,Clear,330,2013-05-18 03:30:00
7:00 AM,86.0,55.4,35,29.86,-9999.0,NNW,21.9,-,N/A,,Clear,340,2013-05-18 04:00:00
7:30 AM,87.8,55.4,33,29.86,-9999.0,NNW,18.4,-,N/A,,Clear,340,2013-05-18 04:30:00
8:00 AM,89.6,53.6,29,29.86,-9999.0,NNW,19.6,-,N/A,,Clear,340,2013-05-18 05:00:00
8:30 AM,91.4,50.0,24,29.86,-9999.0,NNW,23.0,-,N/A,,Clear,340,2013-05-18 05:30:00
9:00 AM,92,45,12,29.86,5,NNW,23.0,,,,Widespread Dust,340,2013-05-18 06:00:00
9:00 AM,91.4,44.6,20,29.86,5.0,NNW,23.0,35.7,N/A,,Unknown,340,2013-05-18 06:00:00
9:30 AM,93.2,44.6,19,29.86,5.0,NNW,24.2,35.7,N/A,,Unknown,340,2013-05-18 06:30:00
10:00 AM,93.2,44.6,19,29.83,5.6,NNW,25.3,36.8,N/A,,Unknown,340,2013-05-18 07:00:00
10:30 AM,95.0,42.8,16,29.83,5.6,NNW,23.0,36.8,N/A,,Unknown,330,2013-05-18 07:30:00
11:00 AM,95.0,42.8,16,29.83,5.6,NW,18.4,-,N/A,,Unknown,320,2013-05-18 08:00:00
11:30 AM,96.8,42.8,16,29.83,5.0,NNW,19.6,33.4,N/A,,Unknown,330,2013-05-18 08:30:00
12:00 PM,96.8,42.8,16,29.83,5.0,NNW,19.6,32.2,N/A,,Unknown,330,2013-05-18 09:00:00
12:30 PM,95.0,41.0,15,29.80,5.6,NNW,24.2,-,N/A,,Unknown,330,2013-05-18 09:30:00
1:00 PM,95.0,41.0,15,29.80,-9999.0,North,20.7,-,N/A,,Clear,350,2013-05-18 10:00:00
1:30 PM,95.0,41.0,15,29.77,-9999.0,NNW,19.6,33.4,N/A,,Clear,330,2013-05-18 10:30:00
2:00 PM,95.0,39.2,14,29.77,-9999.0,NNW,20.7,33.4,N/A,,Clear,330,2013-05-18 11:00:00
2:30 PM,95.0,39.2,14,29.77,-9999.0,NNW,24.2,-,N/A,,Clear,330,2013-05-18 11:30:00
3:00 PM,94,43,10,29.78,6,NNW,20.7,,,,,330,2013-05-18 12:00:00
3:00 PM,95.0,42.8,16,29.77,-9999.0,NNW,20.7,34.5,N/A,,Clear,330,2013-05-18 12:00:00
4:00 PM,93.2,41.0,16,29.74,-9999.0,NW,18.4,-,N/A,,Clear,320,2013-05-18 13:00:00
4:30 PM,91.4,41.0,17,29.74,-9999.0,NNW,20.7,32.2,N/A,,Clear,330,2013-05-18 13:30:00
5:00 PM,91.4,44.6,20,29.74,-9999.0,NNW,17.3,-,N/A,,Clear,330,2013-05-18 14:00:00
5:30 PM,89.6,39.2,17,29.74,-9999.0,NNW,19.6,31.1,N/A,,Clear,330,2013-05-18 14:30:00
6:00 PM,89.6,42.8,20,29.74,-9999.0,NNW,17.3,-,N/A,,Clear,330,2013-05-18 15:00:00
6:30 PM,87.8,42.8,21,29.74,-9999.0,NNW,19.6,-,N/A,,Clear,330,2013-05-18 15:30:00
7:00 PM,87.8,42.8,21,29.77,-9999.0,NW,11.5,-,N/A,,Clear,320,2013-05-18 16:00:00
7:30 PM,86.0,44.6,23,29.77,-9999.0,NW,13.8,-,N/A,,Clear,320,2013-05-18 16:30:00
8:00 PM,86.0,46.4,25,29.77,-9999.0,NW,11.5,-,N/A,,Clear,320,2013-05-18 17:00:00
9:00 PM,85,52,22,29.81,7,NW,11.5,,,,,310,2013-05-18 18:00:00
9:00 PM,84.2,51.8,33,29.80,-9999.0,NW,11.5,-,N/A,,Clear,310,2013-05-18 18:00:00
10:00 PM,84.2,57.2,40,29.80,-9999.0,NW,11.5,-,N/A,,Clear,320,2013-05-18 19:00:00
10:30 PM,84.2,57.2,40,29.77,-9999.0,NW,11.5,-,N/A,,Clear,310,2013-05-18 19:30:00
11:00 PM,102.2,57.2,22,29.77,-9999.0,NW,12.7,-,N/A,,Clear,310,2013-05-18 20:00:00
11:30 PM,84.2,55.4,37,29.77,-9999.0,WNW,12.7,-,N/A,,Clear,300,2013-05-18 20:30:00